Etusivu
METAR-TAF:

METAR-TAF

Lentoasemat :

San Salvador de Jujuy, Argentiina

Leveyspiiri: 24-23S, Pituuspiiri: 065-05W, korkeus merenpinnasta: 921 m

Tämänhetkinen sää

Tämä raportti tehtiin 41 minuuttia sitten, kello 10.00 UTC
Tuuli 6 kn lännestä/luoteesta
Lämpötila 10°C
Kosteus 87%
Ilmanpaine 1014 hPa
Näkyvyys 10 km tai enemmän
ei pilviä alle 1500 m:ssä eikä cumulonimbus-pilviä

METAR: SASJ 291000Z 29006KT CAVOK 10/08 Q1014

Aika: 07:41 (10:41 UTC)

Sääennuste

Tämä raportti tehtiin 5 tuntia ja 41 minuuttia sitten, kello 05.00 UTC
Ennuste voimassa 29. päivästä klo 06 UTC - 30. päivään klo 06 UTC
Tuuli 5 kn lännestä/luoteesta
Näkyvyys 10 km tai enemmän
ei pilviä alle 1500 m:ssä eikä cumulonimbus-pilviä
Tulossa
29. päivästä klo 14 UTC - 29. päivään klo 17 UTC
Tuuli 10 kn idästä/koillisesta

TAF: SASJ 290500Z 2906/3006 29005KT CAVOK TX26/2918Z TN09/2910Z BECMG 2914/2917 07010KT

Säähavainnot ja -ennusteet yli 4000 lentoasemalta (METAR- ja TAF-raportit).

Käytössä olevat sääasemat on merkitty karttaan keltaisilla ja punaisilla pisteillä.

Aseta hiiri pisteen päälle nähdäksesi sääaseman nimen.

Klikkaa sitten nähdäksesi säähavainnot ja -ennusteet.

Kartan vaihtaminen: klikkaa mustalla rastilla varustettuja vihreitä pisteitä, niin voit zoomata sisään; viivalla varustettua vihreää pistettä, niin voit zoomata ulos tai vihreitä nuolia, niin pääset viereisille kartoille.


METAR-TAF: